LFMN

Nice-Côte d'Azur Airport

Nice, France
TAF LFMN 200800Z 2009/2115 12010KT 9999 SCT022 TEMPO 2009/2011 BKN012 PROB30 TEMPO 2015/2018 FEW050CB TEMPO 2015/2019 20010KT BECMG 2022/2024 VRB05KT TEMPO 2100/2105 BKN014 BECMG 2107/2109 18010KT
Issued Valid From Valid To
Jul-20 @ 08:00 UTC
(6 hours ago)
Jul-20 @ 09:00 UTC
(5 hours ago)
Jul-21 @ 15:00 UTC
(-1 days ago)
Jul-20 @ 09:00 to Jul-20 @ 22:00
TAF LFMN 200800Z 2009/2115 12010KT 9999 SCT022
Wind Visibility Clouds
120° at 10 knots 10,000+ meters
  • Scattered at 2,200' AGL
Expired Click to View Jul-20 @ 09:00 to Jul-20 @ 11:00
TEMPO 2009/2011 BKN012
Clouds
  • Broken at 1,200' AGL
Temporary  (Probability 30%) Jul-20 @ 15:00 to Jul-20 @ 18:00
PROB30 TEMPO 2015/2018 FEW050CB
Clouds
  • Few at 5,000' AGL
Temporary Jul-20 @ 15:00 to Jul-20 @ 19:00
TEMPO 2015/2019 20010KT
Wind
200° at 10 knots
Becoming Jul-20 @ 22:00 to Jul-21 @ 07:00
BECMG 2022/2024 VRB05KT
Wind Visibility Clouds
Variable at 5 knots 10,000+ meters
  • Scattered at 2,200' AGL
Temporary Jul-21 @ 00:00 to Jul-21 @ 05:00
TEMPO 2100/2105 BKN014
Clouds
  • Broken at 1,400' AGL
Becoming Jul-21 @ 07:00 to Jul-21 @ 15:00
BECMG 2107/2109 18010KT
Wind Visibility Clouds
180° at 10 knots 10,000+ meters
  • Scattered at 2,200' AGL
TAF LFMN 200800Z 2009/2115 12010KT 9999 SCT022 TEMPO 2009/2011 BKN012 PROB30 TEMPO 2015/2018 FEW050CB TEMPO 2015/2019 20010KT BECMG 2022/2024 VRB05KT TEMPO 2100/2105 BKN014 BECMG 2107/2109 18010KT
Issued Jul-20 @ 08:00 UTC
(6 hours ago)
Valid From Jul-20 @ 09:00 UTC
(5 hours ago)
Valid To Jul-21 @ 15:00 UTC
(-1 days ago)
Jul-20 @ 09:00 - Jul-20 @ 22:00
Wind Visibility
120° at 10 knots 10,000+ meters
Clouds
  • Scattered at 2,200' AGL
Jul-20 @ 09:00 - Jul-20 @ 11:00
Clouds
  • Broken at 1,200' AGL
Probability 30% Temporary Jul-20 @ 15:00 - Jul-20 @ 18:00
Clouds
  • Few at 5,000' AGL
Temporary Jul-20 @ 15:00 - Jul-20 @ 19:00
Wind
200° at 10 knots
Becoming Jul-20 @ 22:00 - Jul-21 @ 07:00
Wind Visibility
Variable at 5 knots 10,000+ meters
Clouds
  • Scattered at 2,200' AGL
Temporary Jul-21 @ 00:00 - Jul-21 @ 05:00
Clouds
  • Broken at 1,400' AGL
Becoming Jul-21 @ 07:00 - Jul-21 @ 15:00
Wind Visibility
180° at 10 knots 10,000+ meters
Clouds
  • Scattered at 2,200' AGL